TimeCEST,TemperatureF,Dew PointF,Humidity,Sea Level PressureIn,VisibilityMPH,Wind Direction,Wind SpeedMPH,Gust SpeedMPH,PrecipitationIn,Events,Conditions,WindDirDegrees,DateUTC
12:00 AM,71.6,48.2,43,30.09,-9999.0,West,16.1,-,N/A,,Clear,280,2013-10-13 22:00:00
12:30 AM,71.6,48.2,43,30.09,-9999.0,West,15.0,-,N/A,,Clear,280,2013-10-13 22:30:00
1:00 AM,71.6,48.2,43,30.09,-9999.0,West,15.0,-,N/A,,Clear,270,2013-10-13 23:00:00
1:30 AM,71.6,48.2,43,30.09,-9999.0,West,16.1,-,N/A,,Clear,280,2013-10-13 23:30:00
2:00 AM,72,49,33,30.10,16,West,15.0,,,,,270,2013-10-14 00:00:00
2:00 AM,71.6,48.2,43,30.09,-9999.0,West,13.8,-,N/A,,Clear,280,2013-10-14 00:00:00
2:30 AM,71.6,48.2,43,30.09,-9999.0,West,15.0,-,N/A,,Clear,280,2013-10-14 00:30:00
3:00 AM,69.8,50.0,49,30.09,-9999.0,West,13.8,-,N/A,,Clear,280,2013-10-14 01:00:00
3:30 AM,69.8,48.2,46,30.09,-9999.0,West,13.8,-,N/A,,Clear,280,2013-10-14 01:30:00
4:00 AM,69.8,48.2,46,30.09,-9999.0,West,13.8,-,N/A,,Clear,280,2013-10-14 02:00:00
4:30 AM,69.8,48.2,46,30.09,-9999.0,WNW,11.5,-,N/A,,Clear,290,2013-10-14 02:30:00
5:00 AM,68.0,50.0,52,30.06,-9999.0,WNW,9.2,-,N/A,,Clear,290,2013-10-14 03:00:00
5:30 AM,66.2,50.0,56,30.06,-9999.0,WNW,8.1,-,N/A,,Clear,300,2013-10-14 03:30:00
6:00 AM,62.6,50.0,63,30.06,-9999.0,NW,5.8,-,N/A,,Clear,310,2013-10-14 04:00:00
6:30 AM,62.6,50.0,63,30.06,-9999.0,NW,5.8,-,N/A,,Clear,310,2013-10-14 04:30:00
7:00 AM,60.8,50.0,68,30.09,-9999.0,NW,6.9,-,N/A,,Clear,310,2013-10-14 05:00:00
7:30 AM,60.8,50.0,68,30.09,-9999.0,WNW,5.8,-,N/A,,Clear,300,2013-10-14 05:30:00
8:00 AM,65,50,47,30.11,16,NW,4.6,,,,,310,2013-10-14 06:00:00
8:00 AM,60.8,50.0,68,30.09,-9999.0,NW,4.6,-,N/A,,Clear,310,2013-10-14 06:00:00
8:30 AM,59.0,50.0,72,30.09,-9999.0,WNW,5.8,-,N/A,,Clear,300,2013-10-14 06:30:00
9:00 AM,60.8,50.0,68,30.09,-9999.0,WNW,5.8,-,N/A,,Clear,300,2013-10-14 07:00:00
9:30 AM,62.6,50.0,63,30.12,-9999.0,WNW,6.9,-,N/A,,Clear,300,2013-10-14 07:30:00
10:00 AM,64.4,50.0,59,30.12,-9999.0,NW,5.8,-,N/A,,Clear,310,2013-10-14 08:00:00
10:30 AM,66.2,50.0,56,30.12,-9999.0,NW,6.9,-,N/A,,Clear,310,2013-10-14 08:30:00
11:00 AM,69.8,51.8,53,30.12,-9999.0,NW,4.6,-,N/A,,Clear,310,2013-10-14 09:00:00
11:30 AM,73.4,50.0,44,30.12,-9999.0,WNW,4.6,-,N/A,,Clear,300,2013-10-14 09:30:00
12:00 PM,75.2,53.6,47,30.12,-9999.0,SW,3.5,-,N/A,,Clear,230,2013-10-14 10:00:00
12:30 PM,75.2,53.6,47,30.12,-9999.0,South,3.5,-,N/A,,Clear,170,2013-10-14 10:30:00
1:00 PM,75.2,53.6,47,30.12,-9999.0,SSE,6.9,-,N/A,,Clear,150,2013-10-14 11:00:00
1:30 PM,77.0,51.8,41,30.12,-9999.0,SE,6.9,-,N/A,,Clear,140,2013-10-14 11:30:00
2:00 PM,79,53,30,30.11,22,SSE,9.2,,,,Scattered Clouds,160,2013-10-14 12:00:00
2:00 PM,75.2,50.0,41,30.09,-9999.0,SSE,9.2,-,N/A,,Clear,160,2013-10-14 12:00:00
2:30 PM,75.2,53.6,47,30.09,6.2,SSE,8.1,-,N/A,,Partly Cloudy,150,2013-10-14 12:30:00
3:00 PM,75.2,55.4,50,30.09,6.2,SSE,9.2,-,N/A,,Partly Cloudy,150,2013-10-14 13:00:00
3:30 PM,73.4,57.2,57,30.09,6.2,SSE,9.2,-,N/A,,Partly Cloudy,150,2013-10-14 13:30:00
4:00 PM,71.6,57.2,60,30.09,-9999.0,SE,10.4,-,N/A,,Clear,130,2013-10-14 14:00:00
4:30 PM,73.4,57.2,57,30.06,-9999.0,SE,11.5,-,N/A,,Clear,130,2013-10-14 14:30:00
5:00 PM,71.6,57.2,60,30.09,-9999.0,SE,11.5,-,N/A,,Clear,130,2013-10-14 15:00:00
5:30 PM,71.6,57.2,60,30.06,-9999.0,SE,10.4,-,N/A,,Clear,140,2013-10-14 15:30:00
6:00 PM,71.6,57.2,60,30.06,-9999.0,SE,11.5,-,N/A,,Clear,130,2013-10-14 16:00:00
6:30 PM,73.4,53.6,50,30.06,-9999.0,ESE,10.4,-,N/A,,Clear,120,2013-10-14 16:30:00
7:00 PM,71.6,55.4,57,30.09,-9999.0,ESE,6.9,-,N/A,,Clear,110,2013-10-14 17:00:00
7:30 PM,69.8,57.2,64,30.09,-9999.0,East,8.1,-,N/A,,Clear,100,2013-10-14 17:30:00
8:00 PM,69,58,61,30.11,16,East,4.6,,,,Scattered Clouds,80,2013-10-14 18:00:00
8:00 PM,68.0,57.2,68,30.09,-9999.0,East,4.6,-,N/A,,Clear,80,2013-10-14 18:00:00
8:30 PM,68.0,57.2,68,30.12,-9999.0,NE,2.3,19.6,N/A,,Clear,40,2013-10-14 18:30:00
9:00 PM,68.0,57.2,68,30.12,-9999.0,Calm,Calm,-,N/A,,Clear,0,2013-10-14 19:00:00
9:30 PM,68.0,57.2,68,30.12,-9999.0,Calm,Calm,-,N/A,,Clear,0,2013-10-14 19:30:00
10:00 PM,66.2,55.4,68,30.12,-9999.0,WNW,2.3,-,N/A,,Clear,300,2013-10-14 20:00:00
10:30 PM,68.0,55.4,64,30.12,-9999.0,WNW,6.9,-,N/A,,Clear,300,2013-10-14 20:30:00
11:00 PM,68.0,53.6,60,30.12,-9999.0,NW,5.8,-,N/A,,Clear,310,2013-10-14 21:00:00
11:30 PM,68.0,53.6,60,30.15,-9999.0,Variable,2.3,-,N/A,,Clear,0,2013-10-14 21:30:00